Pagrindinis puslapis
METAR-TAF:

METAR-TAF

Oro uostai :

Al Bahah, Saudo Arabija

platuma: 20-18N, ilguma: 041-38E, Aukštis: 1652 m

Dabartinis oras

Ataskaita buvo paskelbta 39 minutes, ne 10:00 UTC
Vėjas 9 kt iš Rytų
Temperatūra 30°C
Drėgmė 27%
Slėgis 1022 hPa
Matomumas 10 km arba daugiau
Mažai debesys ne aukštis 3000 ft

METAR: OEBA 141000Z 09009KT 9999 FEW030 30/09 Q1022 NOSIG

Laikas: 13:39 (10:39 UTC)

Prognozė

Ataskaita buvo paskelbta 11 valandos ir 39 minutes, ne 23:00 UTC
Prognozė galioja nuo 14 metu 00 UTC su 15 metu 06 UTC
Vėjas 8 kt iš Pietų/Pietvakarių
Matomumas 10 km arba daugiau
Mažai debesys ne aukštis 3000 ft
Tapsmas
nuo 14 metu 06 UTC su 14 metu 08 UTC
Vėjas 15 kt iš Rytų/Pietryčių
Laikinai
nuo 14 metu 10 UTC su 14 metu 16 UTC
Mažai debesys ne aukštis 2500 ft, Liūtiniai kamuoliniai debesys.
Išsisklaidę debesys ne aukštis 3000 ft
Tapsmas
nuo 14 metu 21 UTC su 14 metu 23 UTC
Vėjas 3 kt nuo kintamojo kryptimis

TAF: OEBA 132300Z 1400/1506 21008KT 9999 FEW030 BECMG 1406/1408 12015KT TEMPO 1410/1416 FEW025CB SCT030 BECMG 1421/1423 VRB03KT

Orai ataskaitas ir orų prognozės (METAR, TAF).

turimą stotys yra geltonos ir raudonos taškus žemėlapyje.

Perkelti pele per norėdami pamatyti stoties vardą.

Tada spustelėkite, norėdami matyti oro stebėjimo ir prognozės.

Norėdami pakeisti žemėlapį: spustelėkite ant žalios mygtukų su juodo kryžiaus žemyn,; žalią mygtuką su brūkšneliu, jei norite nutolinti; arba žalių rodyklių gretimoms žemėlapius.


METAR-TAF: